Bennington, VT

6:30 PM EST on November 27, 2014 (GMT -0500)
Harriman And West | Change Station
CLOSE
Current Station
Airport
Location: North Adams,
Elevation: 653 ft
Nearby Weather Stations

Elev 653 ft 42.70 °N, 73.17 °W | Updated 38 minutes ago

Overcast
Overcast
27 °F
Feels Like 27 °F
N
0
Wind Variable Wind from North

Today
High -- | Low -- °F
--% Chance of Precip.
Yesterday
High -- | Low -- °F
Precip. -- in
6:59 AM 4:21 PM
Waxing Crescent, 34% visible
Pressure 30.02 in
Visibility 8.0 miles
Clouds Overcast 2100 ft
Dew Point 24 °F
Humidity 89%
Rainfall 0.02 in
Snow Depth Not available.
UV 0 out of 12
Pollen .10 out of 12
Air Quality Not available.
Flu Activity Not available.
METAR KAQW 272252Z AUTO 00000KT 8SM OVC021 M03/M04 A2999 RMK AO2 SLP164 T10281044 FZRANO $

More Conditions Fewer Conditions

Pressure 30.02 in
Visibility 8.0 miles
Clouds Overcast 2100 ft
Dew Point 24 °F
Humidity 89%
Rainfall 0.02 in
Snow Depth Not available.
UV 0 out of 12
Pollen .10 out of 12
Air Quality Not available.
Flu Activity Not available.
METAR KAQW 272252Z AUTO 00000KT 8SM OVC021 M03/M04 A2999 RMK AO2 SLP164 T10281044 FZRANO $

More Conditions Fewer Conditions

10-Day Weather Forecast

Almanac

Astronomy

Nov. 27, 2014 Rise Set
Actual Time
Civil Twilight
Nautical Twilight
Astronomical Twilight
Moon
Length of Visible Light
Length of Day
Tomorrow will be .
, % of the Moon is Illuminated

Today's Extremes

State Highs State Lows

Community

WunderPhotos

Upload Photos

1,774,139 photos uploaded!

WunderBlogs® & News

Nearby

Air Quality

  Air Quality AQ Index Pollutant
Not available.

Snow Depth

Station Depth Elevation

Earthquake Activity

City Distance Mag. Time & Date
Minimum magnitude displayed is 2.5.

Coastal Water Temperatures

Place Temperature

Nearby Weather Stations